Time;durP1;ratioP1;P1;durP2;ratioP2;P2;SDS_P1;SDS_P2;PMS_P1;PMS_P2;Temp;Humidity;BMP_temperature;BMP_pressure;BME280_temperature;BME280_humidity;BME280_pressure;Samples;Min_cycle;Max_cycle;Signal;HPM_P1;HPM_P2
2022/03/01 00:00:52;;;;;;;22.73;15.10;;;;;;;;;;5058048;28;20470;-75
2022/03/01 00:03:18;;;;;;;22.75;15.15;;;;;;;;;;5050616;28;20471;-75
2022/03/01 00:05:44;;;;;;;23.77;15.07;;;;;;;;;;5051884;28;20069;-74
2022/03/01 00:08:11;;;;;;;19.63;14.85;;;;;;;;;;5062249;28;20123;-75
2022/03/01 00:10:37;;;;;;;25.33;16.38;;;;;;;;;;5070634;28;20545;-76
2022/03/01 00:13:03;;;;;;;23.98;15.75;;;;;;;;;;5046222;28;20064;-76
2022/03/01 00:15:29;;;;;;;22.17;14.68;;;;;;;;;;5064523;28;20081;-77
2022/03/01 00:17:55;;;;;;;20.98;15.45;;;;;;;;;;5046671;28;20067;-75
2022/03/01 00:20:21;;;;;;;26.33;16.00;;;;;;;;;;5055327;28;20036;-75
2022/03/01 00:22:48;;;;;;;22.20;15.00;;;;;;;;;;5071001;28;20093;-76
2022/03/01 00:25:14;;;;;;;22.38;15.52;;;;;;;;;;5045401;28;20059;-76
2022/03/01 00:27:40;;;;;;;25.27;15.98;;;;;;;;;;5063598;28;20033;-76
2022/03/01 00:30:06;;;;;;;24.73;15.43;;;;;;;;;;5046034;28;20517;-74
2022/03/01 00:32:32;;;;;;;21.52;15.27;;;;;;;;;;5071062;28;20112;-75
2022/03/01 00:34:58;;;;;;;20.48;15.63;;;;;;;;;;5038561;28;20083;-77
2022/03/01 00:37:25;;;;;;;23.48;16.35;;;;;;;;;;5054578;28;20470;-76
2022/03/01 00:39:51;;;;;;;21.92;15.25;;;;;;;;;;5052562;28;20127;-75
2022/03/01 00:42:17;;;;;;;22.98;15.63;;;;;;;;;;5069457;28;20036;-77
2022/03/01 00:44:43;;;;;;;23.23;16.25;;;;;;;;;;5071001;28;20504;-77
2022/03/01 00:47:09;;;;;;;23.27;16.17;;;;;;;;;;5070723;28;20044;-75
2022/03/01 00:49:35;;;;;;;22.40;15.52;;;;;;;;;;5067488;28;20461;-75
2022/03/01 00:52:01;;;;;;;21.30;15.05;;;;;;;;;;5062950;28;20116;-75
2022/03/01 00:54:27;;;;;;;22.40;14.98;;;;;;;;;;5062835;28;20129;-75
2022/03/01 00:56:53;;;;;;;22.90;15.63;;;;;;;;;;5033279;28;20186;-76
2022/03/01 00:59:20;;;;;;;23.45;16.00;;;;;;;;;;5049119;28;20053;-78
2022/03/01 01:01:46;;;;;;;23.85;16.27;;;;;;;;;;5064588;28;20039;-74
2022/03/01 01:04:12;;;;;;;22.35;16.15;;;;;;;;;;5053505;28;20040;-74
2022/03/01 01:06:38;;;;;;;24.40;17.00;;;;;;;;;;5058039;28;20043;-78
2022/03/01 01:09:04;;;;;;;24.02;15.88;;;;;;;;;;5071319;28;20498;-77
2022/03/01 01:11:30;;;;;;;21.75;15.93;;;;;;;;;;5063404;28;20037;-77
2022/03/01 01:13:56;;;;;;;24.35;16.20;;;;;;;;;;5075432;28;20048;-78
2022/03/01 01:16:24;;;;;;;23.80;15.77;;;;;;;;;;5054303;28;20125;-78
2022/03/01 01:18:50;;;;;;;25.08;16.35;;;;;;;;;;5055341;28;20048;-77
2022/03/01 01:21:16;;;;;;;23.92;16.65;;;;;;;;;;5055388;28;20041;-76
2022/03/01 01:23:42;;;;;;;22.67;16.05;;;;;;;;;;5033890;28;20061;-79
2022/03/01 01:26:09;;;;;;;27.33;17.13;;;;;;;;;;5035250;28;20061;-78
2022/03/01 01:28:35;;;;;;;23.02;16.13;;;;;;;;;;5045790;28;20049;-76
2022/03/01 01:31:01;;;;;;;24.30;16.50;;;;;;;;;;5038626;28;20048;-77
2022/03/01 01:33:27;;;;;;;27.15;16.70;;;;;;;;;;5017588;28;20127;-77
2022/03/01 01:35:53;;;;;;;24.85;16.13;;;;;;;;;;5049815;28;20478;-77
2022/03/01 01:38:19;;;;;;;27.25;17.15;;;;;;;;;;5051175;28;20041;-76
2022/03/01 01:40:46;;;;;;;23.38;16.65;;;;;;;;;;5049494;28;20530;-78
2022/03/01 01:43:12;;;;;;;24.75;17.05;;;;;;;;;;5050149;28;20049;-77
2022/03/01 01:45:38;;;;;;;25.92;17.67;;;;;;;;;;5034005;28;20475;-77
2022/03/01 01:48:04;;;;;;;23.98;16.25;;;;;;;;;;5046393;28;20545;-78
2022/03/01 01:50:31;;;;;;;23.92;16.67;;;;;;;;;;5042172;28;20045;-77
2022/03/01 01:52:58;;;;;;;24.92;17.33;;;;;;;;;;5033462;28;20120;-78
2022/03/01 01:55:25;;;;;;;25.67;16.90;;;;;;;;;;5052146;28;20376;-77
2022/03/01 01:57:51;;;;;;;23.83;17.08;;;;;;;;;;5049094;28;20449;-79
2022/03/01 02:00:18;;;;;;;25.50;17.58;;;;;;;;;;5033581;28;20052;-76
2022/03/01 02:02:45;;;;;;;24.65;16.73;;;;;;;;;;5033012;28;20376;-77
2022/03/01 02:05:11;;;;;;;26.48;17.58;;;;;;;;;;5048543;28;20486;-75
2022/03/01 02:07:38;;;;;;;27.70;17.50;;;;;;;;;;5050017;28;20057;-75
2022/03/01 02:10:04;;;;;;;24.75;17.08;;;;;;;;;;5051704;28;20045;-75
2022/03/01 02:12:30;;;;;;;29.17;17.90;;;;;;;;;;5041399;28;20076;-77
2022/03/01 02:14:57;;;;;;;25.27;17.77;;;;;;;;;;5050111;28;20049;-76
2022/03/01 02:17:23;;;;;;;26.88;17.38;;;;;;;;;;5050835;28;20041;-76
2022/03/01 02:19:50;;;;;;;25.23;18.48;;;;;;;;;;5034162;28;20041;-77
2022/03/01 02:22:16;;;;;;;24.77;17.08;;;;;;;;;;5043048;28;20502;-77
2022/03/01 02:24:42;;;;;;;29.95;17.83;;;;;;;;;;5062378;28;20049;-76
2022/03/01 02:27:08;;;;;;;27.83;17.50;;;;;;;;;;5019759;28;20470;-75
2022/03/01 02:29:34;;;;;;;25.42;17.75;;;;;;;;;;5066487;28;20032;-75
2022/03/01 02:32:02;;;;;;;26.33;17.92;;;;;;;;;;5066971;28;20075;-77
2022/03/01 02:34:29;;;;;;;26.80;18.33;;;;;;;;;;5036163;28;20273;-76
2022/03/01 02:36:55;;;;;;;26.40;18.25;;;;;;;;;;5069866;28;20044;-76
2022/03/01 02:39:21;;;;;;;27.30;18.45;;;;;;;;;;5066943;28;20465;-75
2022/03/01 02:41:47;;;;;;;26.85;19.05;;;;;;;;;;5073827;28;20493;-76
2022/03/01 02:44:14;;;;;;;25.42;17.67;;;;;;;;;;5027706;28;20433;-75
2022/03/01 02:46:40;;;;;;;31.58;19.15;;;;;;;;;;5048447;28;20405;-75
2022/03/01 02:49:07;;;;;;;25.83;17.58;;;;;;;;;;5058104;28;20044;-75
2022/03/01 02:51:33;;;;;;;28.55;18.23;;;;;;;;;;5056714;28;20483;-77
2022/03/01 02:53:59;;;;;;;27.75;18.67;;;;;;;;;;5035006;28;20049;-75
2022/03/01 02:56:26;;;;;;;26.95;18.70;;;;;;;;;;5071866;28;20044;-75
2022/03/01 02:58:55;;;;;;;27.02;18.85;;;;;;;;;;5049331;28;20051;-75
2022/03/01 03:01:21;;;;;;;26.05;18.20;;;;;;;;;;5037577;28;20037;-77
2022/03/01 03:03:47;;;;;;;28.35;19.42;;;;;;;;;;5072545;28;20036;-76
2022/03/01 03:06:13;;;;;;;28.20;19.05;;;;;;;;;;5055657;28;20040;-75
2022/03/01 03:08:39;;;;;;;27.95;19.15;;;;;;;;;;5044942;28;20106;-77
2022/03/01 03:11:07;;;;;;;26.60;18.52;;;;;;;;;;5061324;28;20040;-75
2022/03/01 03:13:33;;;;;;;29.60;19.05;;;;;;;;;;5071568;28;20125;-76
2022/03/01 03:16:00;;;;;;;25.95;19.20;;;;;;;;;;5063229;28;20129;-75
2022/03/01 03:18:26;;;;;;;28.48;19.30;;;;;;;;;;5054451;28;20047;-77
2022/03/01 03:20:52;;;;;;;26.83;19.10;;;;;;;;;;5053031;28;20048;-77
2022/03/01 03:23:18;;;;;;;28.58;18.50;;;;;;;;;;5046373;28;20048;-77
2022/03/01 03:25:44;;;;;;;28.58;18.77;;;;;;;;;;5057019;28;20149;-76
2022/03/01 03:28:11;;;;;;;26.92;18.25;;;;;;;;;;5048137;28;20052;-76
2022/03/01 03:30:37;;;;;;;28.92;18.83;;;;;;;;;;5057584;28;20389;-77
2022/03/01 03:33:03;;;;;;;27.83;18.83;;;;;;;;;;5039071;28;20092;-75
2022/03/01 03:35:29;;;;;;;29.13;19.45;;;;;;;;;;5032930;28;20087;-77
2022/03/01 03:37:55;;;;;;;28.58;19.40;;;;;;;;;;5055916;28;20048;-78
2022/03/01 03:40:21;;;;;;;27.08;18.80;;;;;;;;;;5067255;28;20047;-76
2022/03/01 03:42:48;;;;;;;30.08;19.08;;;;;;;;;;5069461;28;20048;-75
2022/03/01 03:45:14;;;;;;;28.45;18.88;;;;;;;;;;5050884;28;20041;-76
2022/03/01 03:47:40;;;;;;;29.00;18.85;;;;;;;;;;5038378;28;20033;-75
2022/03/01 03:50:09;;;;;;;28.40;18.40;;;;;;;;;;5063535;28;20123;-75
2022/03/01 03:52:39;;;;;;;29.33;19.20;;;;;;;;;;5069740;28;20425;-76
2022/03/01 03:55:06;;;;;;;28.75;19.50;;;;;;;;;;5052831;28;20087;-75
2022/03/01 03:57:33;;;;;;;27.98;19.00;;;;;;;;;;5052535;28;20490;-75
2022/03/01 04:00:00;;;;;;;28.23;18.75;;;;;;;;;;5064145;28;20048;-76
2022/03/01 04:02:26;;;;;;;30.60;20.38;;;;;;;;;;5071641;28;20040;-76
2022/03/01 04:04:52;;;;;;;31.65;19.67;;;;;;;;;;5054960;28;20041;-77
2022/03/01 04:07:18;;;;;;;28.42;19.42;;;;;;;;;;5071350;28;20040;-76
2022/03/01 04:09:44;;;;;;;31.85;20.50;;;;;;;;;;5065507;28;20044;-77
2022/03/01 04:12:11;;;;;;;27.35;19.42;;;;;;;;;;5055470;28;20114;-75
2022/03/01 04:14:37;;;;;;;29.30;19.35;;;;;;;;;;5052567;28;20048;-77
2022/03/01 04:17:03;;;;;;;30.58;20.52;;;;;;;;;;5045262;28;20394;-76
2022/03/01 04:19:30;;;;;;;29.73;18.85;;;;;;;;;;5047400;28;20474;-76
2022/03/01 04:21:56;;;;;;;30.58;19.83;;;;;;;;;;5071604;28;20102;-77
2022/03/01 04:24:22;;;;;;;30.02;19.48;;;;;;;;;;5069468;28;20040;-77
2022/03/01 04:26:48;;;;;;;29.45;19.88;;;;;;;;;;5054385;28;20485;-76
2022/03/01 04:29:15;;;;;;;28.30;20.25;;;;;;;;;;5005642;28;20390;-77
2022/03/01 04:31:41;;;;;;;29.50;20.27;;;;;;;;;;5047488;28;20380;-76
2022/03/01 04:34:08;;;;;;;27.70;19.63;;;;;;;;;;5069272;28;20052;-78
2022/03/01 04:36:47;;;;;;;28.77;20.17;;;;;;;;;;5053939;28;20036;-76
2022/03/01 04:42:38;;;;;;;31.58;20.15;;;;;;;;;;5055502;28;20048;-76
2022/03/01 04:45:09;;;;;;;28.33;18.95;;;;;;;;;;5065026;28;20053;-76
2022/03/01 04:47:36;;;;;;;28.67;19.63;;;;;;;;;;5056935;28;20041;-75
2022/03/01 04:50:02;;;;;;;29.83;20.02;;;;;;;;;;5049374;28;20066;-76
2022/03/01 04:52:28;;;;;;;29.10;19.80;;;;;;;;;;5037467;28;20559;-77
2022/03/01 04:54:54;;;;;;;29.15;19.58;;;;;;;;;;5065715;28;20044;-77
2022/03/01 04:57:20;;;;;;;29.10;19.88;;;;;;;;;;5074499;28;20377;-76
2022/03/01 04:59:46;;;;;;;26.88;19.77;;;;;;;;;;5036624;28;20049;-77
2022/03/01 05:02:12;;;;;;;29.35;19.52;;;;;;;;;;5056533;28;20053;-75
2022/03/01 05:04:38;;;;;;;31.67;21.08;;;;;;;;;;5037599;28;20363;-76
2022/03/01 05:07:05;;;;;;;29.88;20.05;;;;;;;;;;5040117;28;20040;-76
2022/03/01 05:09:31;;;;;;;29.30;20.60;;;;;;;;;;5051948;28;20195;-78
2022/03/01 05:11:57;;;;;;;30.15;20.17;;;;;;;;;;5038074;28;20040;-76
2022/03/01 05:14:23;;;;;;;30.90;20.05;;;;;;;;;;5070529;28;20045;-75
2022/03/01 05:16:49;;;;;;;32.05;19.98;;;;;;;;;;5050619;28;20367;-76
2022/03/01 05:19:15;;;;;;;31.70;21.35;;;;;;;;;;5074107;28;20130;-77
2022/03/01 05:21:41;;;;;;;30.30;20.33;;;;;;;;;;5067687;28;20087;-77
2022/03/01 05:24:07;;;;;;;29.90;20.90;;;;;;;;;;5044006;28;20049;-76
2022/03/01 05:26:34;;;;;;;31.25;20.67;;;;;;;;;;5037236;28;20394;-76
2022/03/01 05:29:00;;;;;;;31.08;20.20;;;;;;;;;;5038033;28;20048;-76
2022/03/01 05:31:27;;;;;;;28.98;20.00;;;;;;;;;;5067299;28;20385;-76
2022/03/01 05:33:53;;;;;;;31.35;20.83;;;;;;;;;;5054684;28;20041;-76
2022/03/01 05:36:20;;;;;;;28.13;19.92;;;;;;;;;;5071804;28;20040;-76
2022/03/01 05:38:46;;;;;;;27.35;19.40;;;;;;;;;;5073774;28;20500;-76
2022/03/01 05:41:12;;;;;;;31.80;21.05;;;;;;;;;;5058243;28;20051;-77
2022/03/01 05:43:39;;;;;;;30.25;20.35;;;;;;;;;;5055163;28;20076;-75
2022/03/01 05:46:05;;;;;;;30.50;20.38;;;;;;;;;;5069022;28;20093;-75
2022/03/01 05:48:31;;;;;;;29.05;19.75;;;;;;;;;;5047189;28;20048;-77
2022/03/01 05:50:58;;;;;;;29.58;20.38;;;;;;;;;;5068288;28;20036;-76
2022/03/01 05:53:24;;;;;;;28.88;19.85;;;;;;;;;;5050780;28;20044;-76
2022/03/01 05:55:51;;;;;;;30.92;20.50;;;;;;;;;;5073098;28;20044;-78
2022/03/01 05:58:17;;;;;;;32.03;20.88;;;;;;;;;;5073756;28;20048;-76
2022/03/01 06:00:43;;;;;;;29.73;19.85;;;;;;;;;;5067608;28;20052;-76
2022/03/01 06:03:09;;;;;;;35.35;20.98;;;;;;;;;;5057823;28;20084;-76
2022/03/01 06:05:35;;;;;;;28.92;20.90;;;;;;;;;;5038972;28;20128;-75
2022/03/01 06:08:03;;;;;;;27.33;19.90;;;;;;;;;;5073701;28;20044;-75
2022/03/01 06:10:29;;;;;;;32.63;20.75;;;;;;;;;;5030091;28;20051;-76
2022/03/01 06:12:55;;;;;;;31.33;20.60;;;;;;;;;;5053433;28;20124;-76
2022/03/01 06:15:21;;;;;;;32.90;21.73;;;;;;;;;;5051300;28;20514;-77
2022/03/01 06:17:47;;;;;;;30.00;20.23;;;;;;;;;;5071662;28;20064;-75
2022/03/01 06:20:14;;;;;;;34.28;21.30;;;;;;;;;;5040018;28;20470;-78
2022/03/01 06:22:40;;;;;;;30.80;20.40;;;;;;;;;;5053114;28;20727;-77
2022/03/01 06:25:07;;;;;;;33.33;21.08;;;;;;;;;;5054559;28;20445;-76
2022/03/01 06:27:34;;;;;;;34.45;21.70;;;;;;;;;;5054907;28;20120;-75
2022/03/01 06:30:01;;;;;;;33.63;22.17;;;;;;;;;;5054693;28;20086;-77
2022/03/01 06:32:27;;;;;;;32.13;20.77;;;;;;;;;;5041498;28;20041;-76
2022/03/01 06:34:53;;;;;;;31.73;21.02;;;;;;;;;;5065609;28;20116;-77
2022/03/01 06:37:19;;;;;;;32.15;21.50;;;;;;;;;;5057093;28;20040;-78
2022/03/01 06:39:47;;;;;;;32.00;21.38;;;;;;;;;;5067010;28;20394;-75
2022/03/01 06:42:13;;;;;;;31.88;21.05;;;;;;;;;;5035530;28;20051;-76
2022/03/01 06:44:40;;;;;;;32.08;21.15;;;;;;;;;;5040263;28;20119;-76
2022/03/01 06:47:06;;;;;;;33.75;22.35;;;;;;;;;;5068198;28;20087;-76
2022/03/01 06:49:32;;;;;;;32.33;20.63;;;;;;;;;;5068071;28;20124;-78
2022/03/01 06:51:59;;;;;;;32.75;21.20;;;;;;;;;;5073801;28;20083;-76
2022/03/01 06:54:25;;;;;;;34.33;21.70;;;;;;;;;;5050170;28;20039;-77
2022/03/01 06:56:51;;;;;;;29.77;20.88;;;;;;;;;;5052905;28;20048;-75
2022/03/01 06:59:18;;;;;;;30.10;21.00;;;;;;;;;;5019343;28;20049;-75
2022/03/01 07:01:44;;;;;;;30.77;20.20;;;;;;;;;;5068276;28;20048;-78
2022/03/01 07:04:10;;;;;;;30.92;20.23;;;;;;;;;;5041968;28;20115;-76
2022/03/01 07:06:36;;;;;;;31.88;20.95;;;;;;;;;;5066959;28;20420;-77
2022/03/01 07:09:02;;;;;;;33.90;20.73;;;;;;;;;;5053788;28;20098;-76
2022/03/01 07:11:29;;;;;;;31.13;21.45;;;;;;;;;;5045895;28;20091;-75
2022/03/01 07:13:55;;;;;;;32.80;20.77;;;;;;;;;;5054609;28;20432;-77
2022/03/01 07:16:21;;;;;;;33.90;21.77;;;;;;;;;;5056233;28;20076;-76
2022/03/01 07:18:47;;;;;;;32.17;21.00;;;;;;;;;;5053120;28;20087;-76
2022/03/01 07:21:13;;;;;;;31.52;22.00;;;;;;;;;;5059302;28;20053;-75
2022/03/01 07:23:40;;;;;;;32.05;21.42;;;;;;;;;;5067978;28;20509;-78
2022/03/01 07:26:07;;;;;;;32.90;20.52;;;;;;;;;;5053518;28;20124;-76
2022/03/01 07:28:34;;;;;;;32.42;21.73;;;;;;;;;;5032615;28;20064;-76
2022/03/01 07:31:00;;;;;;;29.65;20.98;;;;;;;;;;5025847;28;20044;-76
2022/03/01 07:33:26;;;;;;;31.17;21.70;;;;;;;;;;5072369;28;20090;-75
2022/03/01 07:35:52;;;;;;;32.20;21.38;;;;;;;;;;5071523;28;20044;-77
2022/03/01 07:38:19;;;;;;;31.33;22.92;;;;;;;;;;5072856;28;20083;-77
2022/03/01 07:40:45;;;;;;;30.77;21.08;;;;;;;;;;5072744;28;20040;-77
2022/03/01 07:43:11;;;;;;;30.48;21.40;;;;;;;;;;5055184;28;20127;-78
2022/03/01 07:45:37;;;;;;;29.23;19.77;;;;;;;;;;5055271;28;20044;-77
2022/03/01 07:48:04;;;;;;;29.35;19.67;;;;;;;;;;5072936;28;20044;-77
2022/03/01 07:50:31;;;;;;;28.58;20.42;;;;;;;;;;5054852;28;20478;-76
2022/03/01 07:52:57;;;;;;;27.08;18.60;;;;;;;;;;5072570;28;20040;-77
2022/03/01 07:55:24;;;;;;;27.27;19.33;;;;;;;;;;5038410;28;20184;-77
2022/03/01 07:57:50;;;;;;;29.00;19.95;;;;;;;;;;5072447;28;20055;-77
2022/03/01 08:00:16;;;;;;;31.02;20.73;;;;;;;;;;5072618;28;20044;-77
2022/03/01 08:02:43;;;;;;;28.35;20.02;;;;;;;;;;5072758;28;20055;-76
2022/03/01 08:05:10;;;;;;;28.52;19.70;;;;;;;;;;5072542;28;20056;-76
2022/03/01 08:07:36;;;;;;;30.25;20.55;;;;;;;;;;5053927;28;20051;-76
2022/03/01 08:10:03;;;;;;;28.80;20.10;;;;;;;;;;5072407;28;20044;-77
2022/03/01 08:12:29;;;;;;;28.55;20.08;;;;;;;;;;5072475;28;20547;-77
2022/03/01 08:14:55;;;;;;;28.42;19.65;;;;;;;;;;5054960;28;20055;-77
2022/03/01 08:17:21;;;;;;;27.48;19.73;;;;;;;;;;5072473;28;20090;-77
2022/03/01 08:19:48;;;;;;;28.63;20.42;;;;;;;;;;5054825;28;20128;-76
2022/03/01 08:22:14;;;;;;;28.05;19.60;;;;;;;;;;5072378;28;20106;-77
2022/03/01 08:24:40;;;;;;;29.40;20.08;;;;;;;;;;5072320;28;20083;-76
2022/03/01 08:27:06;;;;;;;27.55;19.75;;;;;;;;;;5054183;28;20048;-77
2022/03/01 08:29:33;;;;;;;29.33;20.17;;;;;;;;;;5054439;28;20071;-76
2022/03/01 08:31:59;;;;;;;26.65;19.52;;;;;;;;;;5054500;28;20087;-76
2022/03/01 08:34:25;;;;;;;30.13;19.95;;;;;;;;;;5054681;28;20098;-77
2022/03/01 08:36:51;;;;;;;26.67;19.35;;;;;;;;;;5054467;28;20075;-77
2022/03/01 08:39:17;;;;;;;27.13;19.63;;;;;;;;;;5054220;28;20044;-77
2022/03/01 08:41:43;;;;;;;27.08;19.70;;;;;;;;;;5072043;28;20128;-76
2022/03/01 08:44:09;;;;;;;28.15;19.85;;;;;;;;;;5054565;28;20143;-76
2022/03/01 08:46:35;;;;;;;29.90;20.17;;;;;;;;;;5072273;28;20040;-77
2022/03/01 08:49:02;;;;;;;26.83;19.40;;;;;;;;;;5072014;28;20045;-77
2022/03/01 08:51:28;;;;;;;30.92;20.77;;;;;;;;;;5071990;28;20123;-77
2022/03/01 08:53:54;;;;;;;28.27;19.98;;;;;;;;;;5054284;28;20083;-77
2022/03/01 08:56:21;;;;;;;26.33;19.00;;;;;;;;;;5072005;28;20044;-76
2022/03/01 08:58:47;;;;;;;31.50;19.85;;;;;;;;;;5053935;28;20482;-77
2022/03/01 09:01:14;;;;;;;27.48;19.05;;;;;;;;;;5072117;28;20390;-77
2022/03/01 09:03:40;;;;;;;28.45;19.40;;;;;;;;;;5054018;28;20051;-78
2022/03/01 09:06:07;;;;;;;28.05;19.63;;;;;;;;;;5071951;28;20055;-77
2022/03/01 09:08:34;;;;;;;27.42;20.08;;;;;;;;;;5071774;28;20190;-77
2022/03/01 09:11:00;;;;;;;25.20;18.27;;;;;;;;;;5071739;28;20080;-77
2022/03/01 09:13:27;;;;;;;28.98;19.90;;;;;;;;;;5071938;28;20040;-77
2022/03/01 09:15:53;;;;;;;28.92;18.88;;;;;;;;;;5054237;28;20036;-76
2022/03/01 09:18:21;;;;;;;25.92;19.13;;;;;;;;;;5071894;28;20379;-77
2022/03/01 09:20:47;;;;;;;26.55;19.17;;;;;;;;;;5073503;28;20494;-77
2022/03/01 09:23:13;;;;;;;26.75;18.98;;;;;;;;;;5057578;28;20213;-77
2022/03/01 09:25:39;;;;;;;27.73;19.33;;;;;;;;;;5075179;28;20088;-77
2022/03/01 09:28:05;;;;;;;26.98;19.10;;;;;;;;;;5057781;28;20049;-76
2022/03/01 09:30:32;;;;;;;28.58;19.10;;;;;;;;;;5075449;28;20040;-77
2022/03/01 09:32:58;;;;;;;28.65;17.77;;;;;;;;;;5075355;28;20483;-76
2022/03/01 09:35:24;;;;;;;27.85;19.35;;;;;;;;;;5075220;28;20040;-77
2022/03/01 09:37:50;;;;;;;36.90;27.63;;;;;;;;;;5074856;28;20489;-76
2022/03/01 09:40:17;;;;;;;26.00;19.33;;;;;;;;;;5057413;28;20055;-78
2022/03/01 09:42:43;;;;;;;29.80;21.45;;;;;;;;;;5057051;28;20045;-77
2022/03/01 09:45:10;;;;;;;23.50;17.75;;;;;;;;;;5057073;28;20042;-76
2022/03/01 09:47:36;;;;;;;25.13;17.25;;;;;;;;;;5057295;28;20359;-77
2022/03/01 09:50:03;;;;;;;23.02;17.30;;;;;;;;;;5057093;28;20127;-77
2022/03/01 09:52:29;;;;;;;24.73;17.00;;;;;;;;;;5074885;28;20049;-78
2022/03/01 09:54:55;;;;;;;27.10;19.13;;;;;;;;;;5075128;28;20045;-77
2022/03/01 09:57:21;;;;;;;21.27;17.00;;;;;;;;;;5057138;28;20086;-77
2022/03/01 09:59:48;;;;;;;22.40;17.15;;;;;;;;;;5075064;28;20385;-76
2022/03/01 10:02:14;;;;;;;24.33;17.95;;;;;;;;;;5057158;28;20051;-77
2022/03/01 10:04:52;;;;;;;22.02;16.83;;;;;;;;;;5074754;28;20044;-77
2022/03/01 10:07:25;;;;;;;24.38;18.13;;;;;;;;;;5074676;28;20044;-78
2022/03/01 10:09:52;;;;;;;23.30;16.35;;;;;;;;;;5074632;28;20040;-76
2022/03/01 10:12:25;;;;;;;25.15;17.60;;;;;;;;;;5074627;28;20186;-77
2022/03/01 10:14:59;;;;;;;23.40;17.02;;;;;;;;;;5056701;28;20474;-78
2022/03/01 10:17:33;;;;;;;22.92;17.15;;;;;;;;;;5039979;28;20051;-77
2022/03/01 10:20:03;;;;;;;23.08;17.50;;;;;;;;;;5074467;28;20091;-78
2022/03/01 10:22:29;;;;;;;23.48;16.25;;;;;;;;;;5056880;28;20051;-77
2022/03/01 10:25:02;;;;;;;22.98;17.30;;;;;;;;;;5055894;28;20056;-77
2022/03/01 10:27:29;;;;;;;23.60;16.52;;;;;;;;;;5056203;28;20551;-78
2022/03/01 10:29:55;;;;;;;23.95;17.40;;;;;;;;;;5056338;28;20063;-78
2022/03/01 10:32:21;;;;;;;22.00;17.00;;;;;;;;;;5073656;28;20469;-76
2022/03/01 10:34:58;;;;;;;26.02;17.65;;;;;;;;;;5074272;28;20047;-76
2022/03/01 10:37:26;;;;;;;22.52;16.80;;;;;;;;;;5050055;28;20538;-76
2022/03/01 10:39:52;;;;;;;22.30;16.77;;;;;;;;;;5053750;28;20045;-76
2022/03/01 10:42:26;;;;;;;21.90;16.05;;;;;;;;;;5036096;28;20045;-77
2022/03/01 10:44:57;;;;;;;21.88;16.20;;;;;;;;;;5036205;28;20418;-78
2022/03/01 10:47:23;;;;;;;23.08;16.10;;;;;;;;;;5035799;28;20544;-76
2022/03/01 10:49:59;;;;;;;22.63;16.13;;;;;;;;;;5036087;28;20045;-77
2022/03/01 10:52:32;;;;;;;20.88;15.95;;;;;;;;;;5053610;28;20041;-77
2022/03/01 10:54:58;;;;;;;21.05;15.20;;;;;;;;;;5053468;28;20049;-77
2022/03/01 10:57:25;;;;;;;25.55;16.55;;;;;;;;;;5035392;28;20069;-77
2022/03/01 10:59:51;;;;;;;23.52;16.27;;;;;;;;;;5035819;28;20098;-77
2022/03/01 11:02:17;;;;;;;24.40;15.90;;;;;;;;;;5036064;28;20044;-77
2022/03/01 11:04:44;;;;;;;23.08;16.90;;;;;;;;;;5035948;28;20052;-78
2022/03/01 11:07:11;;;;;;;19.13;15.10;;;;;;;;;;5044012;28;20115;-77
2022/03/01 11:09:37;;;;;;;20.92;15.55;;;;;;;;;;5070911;28;20047;-78
2022/03/01 11:12:05;;;;;;;18.27;15.15;;;;;;;;;;5071320;28;20044;-77
2022/03/01 11:14:35;;;;;;;21.27;16.08;;;;;;;;;;5072099;28;20464;-78
2022/03/01 11:17:04;;;;;;;20.85;14.93;;;;;;;;;;5054477;28;20119;-76
2022/03/01 11:20:09;;;;;;;20.95;15.38;;;;;;;;;;5055126;28;20070;-77
2022/03/01 11:22:41;;;;;;;19.58;16.13;;;;;;;;;;4971878;28;20046;-77
2022/03/01 11:25:15;;;;;;;20.50;15.27;;;;;;;;;;4955730;28;20070;-78
2022/03/01 11:27:45;;;;;;;20.83;15.18;;;;;;;;;;5012211;28;20056;-77
2022/03/01 11:30:12;;;;;;;20.45;15.63;;;;;;;;;;5072995;28;20045;-77
2022/03/01 11:32:40;;;;;;;19.02;14.85;;;;;;;;;;5072798;28;20048;-78
2022/03/01 11:35:06;;;;;;;20.13;15.07;;;;;;;;;;5055350;28;20474;-77
2022/03/01 11:37:32;;;;;;;20.73;14.82;;;;;;;;;;5072843;28;20079;-77
2022/03/01 11:39:59;;;;;;;18.58;14.30;;;;;;;;;;5072931;28;20047;-77
2022/03/01 11:42:25;;;;;;;20.25;15.07;;;;;;;;;;5054212;28;20378;-78
2022/03/01 11:44:52;;;;;;;18.55;14.13;;;;;;;;;;5072483;28;20047;-76
2022/03/01 11:47:28;;;;;;;20.20;14.40;;;;;;;;;;5070070;28;20076;-74
2022/03/01 11:49:55;;;;;;;19.40;14.10;;;;;;;;;;5044780;28;20059;-74
2022/03/01 11:52:22;;;;;;;43.78;25.75;;;;;;;;;;5052822;28;20106;-74
2022/03/01 11:54:49;;;;;;;24.58;17.30;;;;;;;;;;5072715;28;20505;-74
2022/03/01 11:57:16;;;;;;;22.75;15.55;;;;;;;;;;5063732;28;20052;-72
2022/03/01 11:59:43;;;;;;;21.30;14.48;;;;;;;;;;5047135;28;20051;-75
2022/03/01 12:02:10;;;;;;;40.53;26.30;;;;;;;;;;5039879;28;20497;-74
2022/03/01 12:04:43;;;;;;;20.17;15.43;;;;;;;;;;5052654;28;20044;-75
2022/03/01 12:07:10;;;;;;;63.70;36.30;;;;;;;;;;5055355;28;20044;-73
2022/03/01 12:09:38;;;;;;;45.15;27.23;;;;;;;;;;5066057;28;20102;-75
2022/03/01 12:12:06;;;;;;;48.45;30.88;;;;;;;;;;5043745;28;20098;-75
2022/03/01 12:14:34;;;;;;;79.97;50.08;;;;;;;;;;5051482;28;20037;-76
2022/03/01 12:17:05;;;;;;;32.05;20.77;;;;;;;;;;5051687;28;20037;-76
2022/03/01 12:19:33;;;;;;;24.10;17.77;;;;;;;;;;5041549;28;20044;-76
2022/03/01 12:22:00;;;;;;;26.00;18.55;;;;;;;;;;5050655;28;20037;-77
2022/03/01 12:24:27;;;;;;;22.45;15.60;;;;;;;;;;5064707;28;20113;-78
2022/03/01 12:26:54;;;;;;;28.15;19.45;;;;;;;;;;5049486;28;20054;-75
2022/03/01 12:29:22;;;;;;;21.55;14.75;;;;;;;;;;5071241;28;20048;-75
2022/03/01 12:31:56;;;;;;;19.55;15.75;;;;;;;;;;5053059;28;20131;-75
2022/03/01 12:34:25;;;;;;;21.13;16.10;;;;;;;;;;5072208;28;20046;-77
2022/03/01 12:36:53;;;;;;;20.77;15.27;;;;;;;;;;5072234;28;20120;-78
2022/03/01 12:39:19;;;;;;;20.02;14.98;;;;;;;;;;5071965;28;20136;-74
2022/03/01 12:41:46;;;;;;;19.98;14.23;;;;;;;;;;5072253;28;20045;-75
2022/03/01 12:44:13;;;;;;;19.52;14.50;;;;;;;;;;5054327;28;20127;-78
2022/03/01 12:46:40;;;;;;;18.90;14.32;;;;;;;;;;5054071;28;20181;-76
2022/03/01 12:49:08;;;;;;;19.75;15.00;;;;;;;;;;5072093;28;20119;-74
2022/03/01 12:51:34;;;;;;;20.70;14.57;;;;;;;;;;5072008;28;20040;-78
2022/03/01 12:54:02;;;;;;;19.38;14.68;;;;;;;;;;5072319;28;20501;-76
2022/03/01 12:56:30;;;;;;;20.85;14.82;;;;;;;;;;5075682;28;20051;-76
2022/03/01 12:59:01;;;;;;;19.45;15.55;;;;;;;;;;5057439;28;20482;-73
2022/03/01 13:01:27;;;;;;;20.77;14.50;;;;;;;;;;5058068;28;20511;-78
2022/03/01 13:03:54;;;;;;;20.88;15.25;;;;;;;;;;5075399;28;20123;-77
2022/03/01 13:06:21;;;;;;;22.27;15.02;;;;;;;;;;5057662;28;20082;-76
2022/03/01 13:08:49;;;;;;;20.50;15.63;;;;;;;;;;5058126;28;20040;-78
2022/03/01 13:11:16;;;;;;;20.55;15.65;;;;;;;;;;5075563;28;20127;-77
2022/03/01 13:13:52;;;;;;;23.00;17.42;;;;;;;;;;5075481;28;20044;-78
2022/03/01 13:16:20;;;;;;;20.77;15.30;;;;;;;;;;5075418;28;20041;-79
2022/03/01 13:18:47;;;;;;;20.38;14.85;;;;;;;;;;5075211;28;20490;-77
2022/03/01 13:21:13;;;;;;;22.08;16.55;;;;;;;;;;5075436;28;20048;-79
2022/03/01 13:23:39;;;;;;;22.50;16.48;;;;;;;;;;5075250;28;20056;-77
2022/03/01 13:26:08;;;;;;;21.33;17.15;;;;;;;;;;5040795;28;20055;-76
2022/03/01 13:28:35;;;;;;;19.58;14.23;;;;;;;;;;5075172;28;20040;-78
2022/03/01 13:31:02;;;;;;;20.15;15.15;;;;;;;;;;5075572;28;20080;-77
2022/03/01 13:33:29;;;;;;;21.90;14.10;;;;;;;;;;5057194;28;20123;-77
2022/03/01 13:35:55;;;;;;;19.05;14.35;;;;;;;;;;5075243;28;20052;-78
2022/03/01 13:38:22;;;;;;;23.30;14.65;;;;;;;;;;5075255;28;20042;-77
2022/03/01 13:40:49;;;;;;;18.30;14.63;;;;;;;;;;5075153;28;20124;-77
2022/03/01 13:43:16;;;;;;;19.33;14.02;;;;;;;;;;5057121;28;20044;-78
2022/03/01 13:45:43;;;;;;;20.27;14.68;;;;;;;;;;5074890;28;20040;-77
2022/03/01 13:48:15;;;;;;;20.85;15.05;;;;;;;;;;5057454;28;20044;-77
2022/03/01 13:50:42;;;;;;;18.35;14.57;;;;;;;;;;5075148;28;20070;-77
2022/03/01 13:53:09;;;;;;;19.73;14.82;;;;;;;;;;5057214;28;20044;-77
2022/03/01 13:55:36;;;;;;;21.75;15.23;;;;;;;;;;5056963;28;20359;-77
2022/03/01 13:58:03;;;;;;;21.08;15.57;;;;;;;;;;5074809;28;20503;-77
2022/03/01 14:00:37;;;;;;;21.85;16.00;;;;;;;;;;5074694;28;20044;-77
2022/03/01 14:03:11;;;;;;;20.83;15.10;;;;;;;;;;5074833;28;20048;-77
2022/03/01 14:05:41;;;;;;;24.98;15.82;;;;;;;;;;5073958;28;20091;-78
2022/03/01 14:08:10;;;;;;;20.88;15.75;;;;;;;;;;5040770;28;20190;-76
2022/03/01 14:10:38;;;;;;;21.02;16.08;;;;;;;;;;5074660;28;20386;-77
2022/03/01 14:13:08;;;;;;;20.10;15.85;;;;;;;;;;5074419;28;20075;-77
2022/03/01 14:15:35;;;;;;;21.38;15.80;;;;;;;;;;5056447;28;20051;-77
2022/03/01 14:18:01;;;;;;;22.33;15.98;;;;;;;;;;5074398;28;20567;-76